Time;durP1;ratioP1;P1;durP2;ratioP2;P2;SDS_P1;SDS_P2;PMS_P1;PMS_P2;Temp;Humidity;BMP_temperature;BMP_pressure;BME280_temperature;BME280_humidity;BME280_pressure;Samples;Min_cycle;Max_cycle;Signal;HPM_P1;HPM_P2
2021/03/02 00:02:16;;;;;;;8.50;1.98;;;32.00;37.70;;;;;;5002454;28;20089;-69
2021/03/02 00:04:47;;;;;;;6.40;1.70;;;32.10;37.50;;;;;;4999068;28;20030;-66
2021/03/02 00:07:15;;;;;;;4.43;1.63;;;32.30;37.90;;;;;;4994915;28;20133;-66
2021/03/02 00:09:44;;;;;;;4.45;1.73;;;32.30;37.90;;;;;;4998743;28;20503;-66
2021/03/02 00:12:13;;;;;;;7.03;2.22;;;32.30;37.10;;;;;;5002789;28;20041;-67
2021/03/02 00:14:41;;;;;;;6.30;1.88;;;32.30;37.80;;;;;;5005486;28;20026;-69
2021/03/02 00:17:41;;;;;;;4.45;1.75;;;32.30;37.00;;;;;;5001503;28;20119;-69
2021/03/02 00:20:14;;;;;;;7.45;1.90;;;32.20;33.70;;;;;;5002622;28;20407;-66
2021/03/02 00:23:01;;;;;;;4.38;1.98;;;32.10;37.70;;;;;;5006164;28;20029;-67
2021/03/02 00:25:37;;;;;;;8.27;2.58;;;32.60;37.80;;;;;;5004511;28;20065;-66
2021/03/02 00:28:09;;;;;;;8.77;2.42;;;31.90;36.80;;;;;;5000850;28;20056;-66
2021/03/02 00:30:38;;;;;;;5.57;1.90;;;31.00;37.90;;;;;;5005424;28;20042;-68
2021/03/02 00:33:07;;;;;;;8.75;2.17;;;30.10;39.10;;;;;;5005172;28;20042;-67
2021/03/02 00:35:34;;;;;;;9.88;2.80;;;30.00;44.30;;;;;;5005156;28;20038;-67
2021/03/02 00:38:02;;;;;;;7.57;3.42;;;29.80;47.30;;;;;;4998521;28;20100;-66
2021/03/02 00:40:29;;;;;;;9.15;3.17;;;29.60;48.10;;;;;;5005064;28;20034;-67
2021/03/02 00:42:57;;;;;;;12.35;3.00;;;29.30;48.30;;;;;;5003416;28;20060;-66
2021/03/02 00:45:24;;;;;;;12.05;3.83;;;28.60;49.70;;;;;;5004923;28;20115;-67
2021/03/02 00:47:55;;;;;;;9.48;2.97;;;28.20;51.10;;;;;;4999888;28;20048;-67
2021/03/02 00:50:24;;;;;;;9.63;2.67;;;28.90;49.80;;;;;;5002799;28;20034;-67
2021/03/02 00:52:52;;;;;;;14.15;3.72;;;29.70;49.00;;;;;;5003633;28;20041;-69
2021/03/02 00:55:20;;;;;;;12.20;3.60;;;30.20;49.10;;;;;;5005421;28;20501;-69
2021/03/02 00:57:47;;;;;;;11.57;3.90;;;30.60;49.30;;;;;;4996603;28;20045;-68
2021/03/02 01:00:15;;;;;;;15.63;3.92;;;30.80;46.50;;;;;;5005230;28;20037;-68
2021/03/02 01:02:44;;;;;;;11.70;3.30;;;31.00;45.70;;;;;;5003929;28;20022;-68
2021/03/02 01:05:13;;;;;;;9.98;3.38;;;30.60;44.50;;;;;;5005115;28;20034;-67
2021/03/02 01:07:41;;;;;;;11.43;3.70;;;30.70;45.30;;;;;;4998997;28;20108;-67
2021/03/02 01:10:10;;;;;;;8.77;3.72;;;30.90;45.00;;;;;;5005124;28;20523;-67
2021/03/02 01:12:37;;;;;;;13.60;2.90;;;31.20;44.60;;;;;;5004364;28;20041;-67
2021/03/02 01:15:07;;;;;;;10.00;3.22;;;31.50;45.40;;;;;;5004744;28;20138;-67
2021/03/02 01:17:35;;;;;;;13.65;2.55;;;31.50;44.60;;;;;;5000117;28;20096;-67
2021/03/02 01:20:05;;;;;;;13.35;3.13;;;32.00;47.90;;;;;;5003580;28;20060;-68
2021/03/02 01:22:32;;;;;;;8.23;3.03;;;32.10;44.10;;;;;;5003690;28;20041;-67
2021/03/02 01:25:00;;;;;;;11.57;4.13;;;31.10;43.80;;;;;;5002628;28;20041;-67
2021/03/02 01:27:27;;;;;;;11.60;2.97;;;30.20;45.00;;;;;;4999642;28;20065;-67
2021/03/02 01:29:55;;;;;;;10.05;2.78;;;29.80;47.30;;;;;;5003572;28;20862;-67
2021/03/02 01:32:22;;;;;;;14.00;3.22;;;30.30;46.50;;;;;;5004471;28;20484;-67
2021/03/02 01:34:49;;;;;;;14.63;4.00;;;30.60;46.10;;;;;;5004087;28;20018;-67
2021/03/02 01:37:18;;;;;;;12.85;3.20;;;30.50;47.80;;;;;;4997148;28;20026;-68
2021/03/02 01:39:46;;;;;;;11.63;3.15;;;30.70;45.20;;;;;;5002912;28;20088;-70
2021/03/02 01:42:13;;;;;;;11.15;2.78;;;31.00;46.30;;;;;;5004727;28;20540;-67
2021/03/02 01:44:40;;;;;;;11.80;3.00;;;31.30;44.80;;;;;;5001065;28;21055;-67
2021/03/02 01:47:08;;;;;;;9.23;2.78;;;31.30;44.60;;;;;;5000207;28;20048;-68
2021/03/02 01:49:36;;;;;;;9.10;2.35;;;31.30;43.60;;;;;;5002649;28;20049;-69
2021/03/02 01:52:03;;;;;;;12.57;3.05;;;31.20;45.00;;;;;;5018679;28;20045;-67
2021/03/02 01:54:31;;;;;;;10.05;2.83;;;31.30;44.00;;;;;;5002813;28;20034;-73
2021/03/02 01:56:59;;;;;;;13.48;3.20;;;31.40;44.60;;;;;;4999326;28;20610;-68
2021/03/02 01:59:26;;;;;;;8.60;2.58;;;31.50;41.90;;;;;;5001558;28;20029;-72
2021/03/02 02:01:57;;;;;;;8.75;2.40;;;31.50;42.90;;;;;;5002350;28;20707;-70
2021/03/02 02:04:35;;;;;;;7.28;2.50;;;31.30;42.00;;;;;;5002735;28;20097;-70
2021/03/02 02:07:05;;;;;;;13.25;3.90;;;31.30;45.80;;;;;;4999887;28;20034;-69
2021/03/02 02:09:42;;;;;;;12.18;3.40;;;31.40;44.50;;;;;;5003432;28;20068;-71
2021/03/02 02:12:15;;;;;;;10.65;3.08;;;31.30;43.80;;;;;;5003767;28;20034;-67
2021/03/02 02:14:54;;;;;;;28.20;8.23;;;31.50;44.90;;;;;;5002828;28;20032;-71
2021/03/02 02:17:41;;;;;;;15.95;4.25;;;31.70;42.40;;;;;;4998311;28;20143;-68
2021/03/02 02:20:13;;;;;;;13.60;4.38;;;30.40;45.30;;;;;;5003125;28;20045;-67
2021/03/02 02:22:49;;;;;;;13.73;4.80;;;30.30;45.00;;;;;;5003727;28;20148;-68
2021/03/02 02:25:42;;;;;;;13.15;3.40;;;30.80;45.10;;;;;;5001584;28;20108;-71
2021/03/02 02:28:11;;;;;;;13.85;4.75;;;30.90;43.70;;;;;;4998218;28;20099;-68
2021/03/02 02:30:42;;;;;;;28.98;8.43;;;30.80;43.10;;;;;;5003525;28;20587;-73
2021/03/02 02:33:12;;;;;;;17.85;5.15;;;30.80;43.10;;;;;;5003434;28;20030;-67
2021/03/02 02:35:43;;;;;;;15.65;4.95;;;30.70;43.60;;;;;;5003409;28;20033;-68
2021/03/02 02:38:12;;;;;;;10.90;3.50;;;30.70;43.40;;;;;;4996482;28;20132;-67
2021/03/02 02:40:40;;;;;;;12.50;4.18;;;30.60;45.30;;;;;;5002466;28;20076;-66
2021/03/02 02:43:07;;;;;;;14.07;3.08;;;30.50;43.70;;;;;;5002745;28;20046;-66
2021/03/02 02:45:35;;;;;;;13.77;3.40;;;30.80;44.70;;;;;;5003503;28;20369;-69
2021/03/02 02:48:03;;;;;;;10.75;3.67;;;31.20;42.30;;;;;;5011959;28;20495;-75
2021/03/02 02:50:31;;;;;;;12.07;3.67;;;31.20;43.70;;;;;;5000206;28;20892;-66
2021/03/02 02:53:00;;;;;;;9.55;2.60;;;31.00;42.60;;;;;;5002829;28;20685;-67
2021/03/02 02:55:43;;;;;;;10.20;3.20;;;30.80;43.00;;;;;;5001760;28;20018;-68
2021/03/02 02:58:12;;;;;;;10.93;3.38;;;31.20;42.50;;;;;;4998300;28;20925;-68
2021/03/02 03:00:41;;;;;;;13.95;3.35;;;31.50;41.90;;;;;;5003153;28;20084;-68
2021/03/02 03:03:17;;;;;;;12.02;3.35;;;31.30;41.50;;;;;;5001530;28;20036;-68
2021/03/02 03:05:47;;;;;;;;;;;30.60;42.50;;;;;;5003050;28;20044;-68
2021/03/02 03:08:19;;;;;;;11.65;2.75;;;29.40;44.10;;;;;;4998118;28;19918;-72
2021/03/02 03:10:49;;;;;;;9.15;2.47;;;29.40;45.20;;;;;;5003253;28;20091;-68
2021/03/02 03:13:23;;;;;;;7.97;3.20;;;29.90;43.80;;;;;;5003140;28;20032;-71
2021/03/02 03:15:54;;;;;;;13.75;3.03;;;30.20;44.30;;;;;;5000445;28;20442;-69
2021/03/02 03:18:25;;;;;;;8.60;2.75;;;30.50;43.60;;;;;;4997241;28;20049;-68
2021/03/02 03:20:56;;;;;;;13.25;3.08;;;30.60;44.50;;;;;;5001687;28;20033;-68
2021/03/02 03:23:25;;;;;;;8.68;3.78;;;30.90;42.20;;;;;;5002882;28;20091;-70
2021/03/02 03:25:52;;;;;;;10.32;3.30;;;30.80;43.40;;;;;;5002284;28;20096;-67
2021/03/02 03:28:21;;;;;;;10.18;3.22;;;30.50;43.80;;;;;;4998662;28;20144;-70
2021/03/02 03:30:50;;;;;;;11.93;2.78;;;30.10;43.70;;;;;;4999652;28;20033;-69
2021/03/02 03:33:19;;;;;;;13.32;3.45;;;30.00;44.30;;;;;;5002717;28;20057;-70
2021/03/02 03:35:47;;;;;;;20.05;2.80;;;30.10;44.30;;;;;;5002702;28;20488;-69
2021/03/02 03:38:15;;;;;;;9.80;2.50;;;30.30;42.80;;;;;;4998671;28;20033;-71
2021/03/02 03:40:42;;;;;;;11.45;2.58;;;30.30;45.20;;;;;;5001458;28;20061;-67
2021/03/02 03:43:09;;;;;;;9.90;2.83;;;30.50;44.30;;;;;;5002321;28;20046;-67
2021/03/02 03:45:37;;;;;;;11.93;2.90;;;30.90;42.30;;;;;;5002040;28;20076;-69
2021/03/02 03:48:04;;;;;;;6.05;2.03;;;29.70;41.70;;;;;;4998754;28;20111;-69
2021/03/02 03:50:32;;;;;;;9.73;2.65;;;28.80;45.00;;;;;;4999686;28;20147;-68
2021/03/02 03:53:03;;;;;;;11.40;3.05;;;28.80;44.30;;;;;;5002226;28;20105;-72
2021/03/02 03:55:41;;;;;;;13.95;2.55;;;28.80;45.00;;;;;;5001688;28;20034;-69
2021/03/02 03:58:16;;;;;;;10.10;2.25;;;29.10;44.30;;;;;;4999338;28;20035;-68
2021/03/02 04:00:44;;;;;;;9.70;3.20;;;29.50;43.90;;;;;;5001300;28;20124;-68
2021/03/02 04:03:12;;;;;;;10.45;2.47;;;29.70;42.30;;;;;;5001853;28;20063;-67
2021/03/02 04:05:40;;;;;;;13.15;3.40;;;29.60;43.10;;;;;;5001150;28;20044;-67
2021/03/02 04:08:08;;;;;;;9.00;2.42;;;29.50;43.20;;;;;;4998820;28;20045;-69
2021/03/02 04:10:36;;;;;;;9.50;2.20;;;29.50;43.30;;;;;;5001161;28;20040;-66
2021/03/02 04:13:13;;;;;;;12.07;2.38;;;29.50;43.30;;;;;;5001649;28;20101;-68
2021/03/02 04:15:43;;;;;;;7.00;2.70;;;29.70;43.10;;;;;;5001646;28;20081;-66
2021/03/02 04:18:16;;;;;;;12.13;4.32;;;29.50;42.10;;;;;;4998493;28;20331;-67
2021/03/02 04:20:45;;;;;;;10.63;2.80;;;29.20;43.40;;;;;;5000451;28;20117;-68
2021/03/02 04:23:12;;;;;;;7.40;2.58;;;29.10;43.20;;;;;;5002756;28;20050;-67
2021/03/02 04:25:40;;;;;;;10.43;2.78;;;29.00;42.60;;;;;;5002594;28;20057;-68
2021/03/02 04:28:08;;;;;;;12.30;3.67;;;28.80;45.00;;;;;;4997317;28;20902;-69
2021/03/02 04:30:36;;;;;;;14.23;2.88;;;28.80;42.60;;;;;;5000341;28;20556;-68
2021/03/02 04:33:04;;;;;;;7.10;2.10;;;28.70;42.40;;;;;;5001652;28;20041;-70
2021/03/02 04:35:32;;;;;;;10.77;2.85;;;28.70;43.60;;;;;;5001683;28;20064;-67
2021/03/02 04:38:01;;;;;;;6.10;2.33;;;28.70;44.50;;;;;;4998444;28;20028;-71
2021/03/02 04:40:29;;;;;;;9.45;2.25;;;28.80;42.60;;;;;;4999581;28;20037;-71
2021/03/02 04:42:56;;;;;;;9.77;2.80;;;28.50;44.10;;;;;;5001070;28;20038;-69
2021/03/02 04:45:23;;;;;;;15.00;3.40;;;28.00;44.40;;;;;;5001062;28;20068;-66
2021/03/02 04:47:51;;;;;;;10.90;3.65;;;28.20;44.40;;;;;;4998170;28;20204;-67
2021/03/02 04:50:18;;;;;;;9.82;2.45;;;28.30;43.20;;;;;;4999753;28;20062;-69
2021/03/02 04:52:46;;;;;;;10.88;2.70;;;28.20;44.60;;;;;;5000506;28;20081;-67
2021/03/02 04:55:14;;;;;;;11.23;2.53;;;27.70;44.90;;;;;;5001342;28;20064;-66
2021/03/02 04:57:41;;;;;;;10.95;2.97;;;27.30;46.40;;;;;;4999356;28;20048;-65
2021/03/02 05:00:10;;;;;;;10.93;3.45;;;26.90;46.30;;;;;;5003270;28;20022;-67
2021/03/02 05:02:38;;;;;;;9.95;3.35;;;26.50;46.40;;;;;;5004931;28;20030;-66
2021/03/02 05:05:06;;;;;;;7.50;2.65;;;26.10;46.90;;;;;;5004002;28;20201;-68
2021/03/02 05:07:34;;;;;;;12.75;2.92;;;25.90;48.20;;;;;;5000535;28;20030;-68
2021/03/02 05:10:02;;;;;;;10.48;3.97;;;25.80;48.90;;;;;;5001864;28;20029;-68
2021/03/02 05:12:30;;;;;;;10.88;2.10;;;25.60;48.80;;;;;;5005917;28;20050;-71
2021/03/02 05:14:58;;;;;;;9.65;2.70;;;25.70;49.30;;;;;;5004087;28;20038;-67
2021/03/02 05:17:25;;;;;;;13.05;2.55;;;25.90;49.10;;;;;;5001969;28;20034;-66
2021/03/02 05:19:52;;;;;;;8.05;2.92;;;26.10;48.50;;;;;;5001113;28;20048;-69
2021/03/02 05:22:20;;;;;;;13.25;2.60;;;26.50;48.40;;;;;;5005229;28;20069;-68
2021/03/02 05:24:47;;;;;;;12.52;3.05;;;26.60;47.40;;;;;;5004087;28;20018;-68
2021/03/02 05:27:15;;;;;;;11.52;2.30;;;26.80;46.10;;;;;;5001581;28;20042;-68
2021/03/02 05:29:42;;;;;;;8.25;2.92;;;26.40;45.80;;;;;;5002356;28;20022;-67
2021/03/02 05:32:09;;;;;;;13.38;2.38;;;26.20;46.90;;;;;;5004711;28;20357;-65
2021/03/02 05:34:37;;;;;;;10.43;2.20;;;25.80;47.80;;;;;;5003775;28;20772;-67
2021/03/02 05:37:04;;;;;;;15.18;2.42;;;25.50;48.70;;;;;;5001913;28;20476;-66
2021/03/02 05:39:32;;;;;;;13.98;3.13;;;25.80;48.50;;;;;;5003192;28;20084;-71
2021/03/02 05:42:00;;;;;;;11.13;2.60;;;25.90;48.60;;;;;;5002519;28;20052;-67
2021/03/02 05:44:28;;;;;;;12.27;3.03;;;26.00;47.50;;;;;;5003992;28;20050;-70
2021/03/02 05:46:56;;;;;;;10.98;2.40;;;25.70;48.10;;;;;;5003276;28;20879;-67
2021/03/02 05:49:24;;;;;;;10.27;2.95;;;25.40;47.80;;;;;;5000478;28;20037;-67
2021/03/02 05:51:52;;;;;;;13.23;2.53;;;25.20;49.20;;;;;;5001853;28;20480;-66
2021/03/02 05:54:19;;;;;;;9.98;2.78;;;25.10;50.60;;;;;;5002338;28;20038;-69
2021/03/02 05:56:47;;;;;;;10.68;2.58;;;25.30;48.80;;;;;;5001640;28;20036;-72
2021/03/02 05:59:14;;;;;;;11.02;2.03;;;25.20;49.40;;;;;;4998671;28;20046;-68
2021/03/02 06:01:42;;;;;;;12.60;2.40;;;25.20;48.90;;;;;;5002842;28;20065;-65
2021/03/02 06:04:17;;;;;;;8.25;2.13;;;24.90;49.20;;;;;;5003172;28;20595;-68
2021/03/02 06:06:45;;;;;;;14.73;2.80;;;24.90;49.70;;;;;;5001979;28;20046;-67
2021/03/02 06:09:13;;;;;;;10.77;2.67;;;24.90;50.30;;;;;;4999466;28;20030;-67
2021/03/02 06:11:40;;;;;;;13.77;2.47;;;24.90;50.00;;;;;;5003196;28;20053;-66
2021/03/02 06:14:23;;;;;;;14.80;3.30;;;24.70;50.30;;;;;;5002482;28;20042;-66
2021/03/02 06:16:52;;;;;;;13.00;2.95;;;24.60;50.50;;;;;;5001070;28;20110;-66
2021/03/02 06:19:37;;;;;;;8.95;2.20;;;24.60;50.50;;;;;;4999764;28;20046;-68
2021/03/02 06:22:05;;;;;;;9.90;2.20;;;24.50;50.50;;;;;;5000899;28;20030;-69
2021/03/02 06:24:41;;;;;;;9.00;2.20;;;24.40;50.90;;;;;;5003007;28;20036;-67
2021/03/02 06:27:13;;;;;;;8.52;2.17;;;24.60;50.00;;;;;;4996211;28;20492;-66
2021/03/02 06:29:41;;;;;;;11.45;2.65;;;24.70;50.40;;;;;;4999708;28;20030;-67
2021/03/02 06:32:09;;;;;;;11.43;2.15;;;24.70;50.30;;;;;;5002710;28;20065;-67
2021/03/02 06:34:48;;;;;;;9.60;1.95;;;24.60;50.20;;;;;;5003306;28;20090;-66
2021/03/02 06:37:15;;;;;;;10.27;2.42;;;24.60;50.10;;;;;;4998740;28;20064;-67
2021/03/02 06:39:43;;;;;;;15.43;3.10;;;24.60;50.00;;;;;;5001168;28;20117;-65
2021/03/02 06:42:34;;;;;;;8.63;2.08;;;24.60;49.40;;;;;;5001466;28;20072;-67
2021/03/02 06:45:09;;;;;;;8.70;2.30;;;24.70;49.70;;;;;;5002898;28;20500;-66
2021/03/02 06:47:39;;;;;;;9.35;2.53;;;24.90;49.30;;;;;;4996850;28;20042;-66
2021/03/02 06:50:23;;;;;;;7.03;1.92;;;24.80;49.70;;;;;;5000878;28;20417;-69
2021/03/02 06:52:51;;;;;;;10.63;2.75;;;24.60;50.10;;;;;;5000907;28;20044;-66
2021/03/02 06:55:29;;;;;;;6.35;1.88;;;24.50;50.00;;;;;;5001638;28;20056;-66
2021/03/02 06:58:32;;;;;;;9.18;2.83;;;24.40;50.70;;;;;;4999443;28;20026;-68
2021/03/02 07:01:01;;;;;;;11.73;2.63;;;24.30;50.90;;;;;;5001144;28;20022;-66
2021/03/02 07:03:31;;;;;;;17.65;2.63;;;24.20;50.60;;;;;;5002153;28;20030;-66
2021/03/02 07:06:04;;;;;;;8.85;3.53;;;24.00;51.50;;;;;;5001595;28;20034;-67
2021/03/02 07:08:38;;;;;;;13.88;2.85;;;23.90;51.50;;;;;;4998223;28;20077;-67
2021/03/02 07:11:05;;;;;;;11.93;2.25;;;23.90;51.30;;;;;;5000369;28;20117;-67
2021/03/02 07:13:34;;;;;;;7.03;1.90;;;23.90;51.20;;;;;;5001429;28;20029;-66
2021/03/02 07:16:02;;;;;;;8.00;2.45;;;23.90;51.70;;;;;;5000691;28;20029;-67
2021/03/02 07:18:31;;;;;;;8.20;2.53;;;23.80;52.40;;;;;;4998156;28;20033;-67
2021/03/02 07:21:04;;;;;;;8.85;2.50;;;23.60;52.40;;;;;;5000786;28;20037;-65
2021/03/02 07:23:34;;;;;;;14.43;2.58;;;23.70;52.10;;;;;;5001734;28;20030;-67
2021/03/02 07:26:03;;;;;;;10.50;2.85;;;23.60;51.70;;;;;;5002052;28;20375;-66
2021/03/02 07:28:38;;;;;;;16.00;4.05;;;23.40;51.70;;;;;;4998435;28;20393;-66
2021/03/02 07:31:05;;;;;;;25.58;6.47;;;23.20;52.60;;;;;;4998761;28;20030;-65
2021/03/02 07:33:34;;;;;;;12.18;3.72;;;23.10;53.40;;;;;;4999853;28;20116;-66
2021/03/02 07:36:01;;;;;;;14.35;2.30;;;23.10;53.60;;;;;;5001869;28;20025;-66
2021/03/02 07:38:29;;;;;;;12.25;3.65;;;23.10;53.40;;;;;;4998677;28;20404;-66
2021/03/02 07:40:57;;;;;;;11.73;2.58;;;23.10;53.80;;;;;;5000228;28;20115;-66
2021/03/02 07:43:38;;;;;;;9.07;2.28;;;23.20;53.60;;;;;;5001253;28;20110;-66
2021/03/02 07:46:30;;;;;;;11.57;2.70;;;23.20;53.40;;;;;;4998926;28;20036;-65
2021/03/02 07:48:57;;;;;;;13.35;3.28;;;23.00;53.40;;;;;;4999014;28;20049;-67
2021/03/02 07:51:25;;;;;;;13.85;2.97;;;22.80;53.80;;;;;;5001250;28;20038;-67
2021/03/02 07:54:13;;;;;;;47.38;11.05;;;22.70;54.20;;;;;;5000908;28;20038;-65
2021/03/02 07:56:40;;;;;;;33.80;8.60;;;22.60;55.40;;;;;;4999174;28;20380;-68
2021/03/02 07:59:10;;;;;;;16.08;2.72;;;22.50;55.70;;;;;;4999556;28;20484;-67
2021/03/02 08:01:38;;;;;;;8.00;3.55;;;22.40;54.70;;;;;;4999731;28;20113;-66
2021/03/02 08:04:24;;;;;;;9.35;2.58;;;22.40;55.00;;;;;;5000670;28;20096;-65
2021/03/02 08:06:51;;;;;;;;;;;22.50;54.60;;;;;;4999316;28;20109;-69
2021/03/02 08:09:31;;;;;;;15.65;2.80;;;22.40;54.80;;;;;;4998534;28;19917;-67
2021/03/02 08:12:25;;;;;;;7.50;2.10;;;22.40;54.80;;;;;;5001920;28;20061;-67
2021/03/02 08:14:53;;;;;;;10.32;2.58;;;22.40;55.30;;;;;;5001290;28;20041;-68
2021/03/02 08:17:25;;;;;;;12.05;2.45;;;22.30;55.90;;;;;;4998547;28;20042;-68
2021/03/02 08:20:10;;;;;;;11.55;2.10;;;22.20;55.90;;;;;;4998806;28;20070;-69
2021/03/02 08:22:46;;;;;;;9.25;2.70;;;22.20;56.80;;;;;;5001988;28;20804;-67
2021/03/02 08:25:25;;;;;;;9.27;1.90;;;22.10;56.90;;;;;;5001509;28;20117;-66
2021/03/02 08:27:59;;;;;;;8.80;1.73;;;22.10;56.80;;;;;;4998435;28;20091;-67
2021/03/02 08:30:36;;;;;;;8.18;1.92;;;22.10;56.80;;;;;;5000185;28;20026;-70
2021/03/02 08:33:13;;;;;;;8.10;2.03;;;22.00;57.20;;;;;;5004096;28;20026;-68
2021/03/02 08:35:42;;;;;;;8.10;2.70;;;22.00;57.00;;;;;;5019119;28;20381;-67
2021/03/02 08:38:11;;;;;;;10.65;2.83;;;21.90;56.90;;;;;;5002022;28;20112;-69
2021/03/02 08:40:39;;;;;;;15.32;2.38;;;22.00;57.20;;;;;;5003560;28;20030;-67
2021/03/02 08:43:14;;;;;;;12.38;3.15;;;22.00;56.80;;;;;;5000929;28;20045;-67
2021/03/02 08:45:44;;;;;;;11.50;2.90;;;22.00;57.00;;;;;;5003069;28;20044;-68
2021/03/02 08:48:18;;;;;;;7.63;2.53;;;21.90;56.60;;;;;;5001445;28;20049;-67
2021/03/02 08:50:46;;;;;;;12.77;2.20;;;21.80;57.20;;;;;;5002667;28;20036;-69
2021/03/02 08:53:48;;;;;;;8.40;1.75;;;21.80;57.00;;;;;;5003943;28;20033;-69
2021/03/02 08:56:24;;;;;;;11.02;2.72;;;21.80;56.70;;;;;;5003627;28;20168;-65
2021/03/02 08:59:09;;;;;;;15.85;3.38;;;21.70;57.30;;;;;;5001250;28;20037;-66
2021/03/02 09:01:43;;;;;;;8.20;2.10;;;21.70;57.30;;;;;;5003618;28;20372;-66
2021/03/02 09:04:15;;;;;;;11.98;2.13;;;21.80;57.20;;;;;;5004332;28;20044;-66
2021/03/02 09:06:50;;;;;;;12.70;2.17;;;21.70;57.90;;;;;;5001971;28;20025;-66
2021/03/02 09:09:19;;;;;;;10.90;2.38;;;21.60;57.70;;;;;;5001794;28;20038;-68
2021/03/02 09:11:48;;;;;;;11.60;2.05;;;21.60;57.90;;;;;;5003884;28;20065;-65
2021/03/02 09:14:22;;;;;;;9.73;2.20;;;21.50;58.10;;;;;;5004264;28;20025;-66
2021/03/02 09:16:53;;;;;;;11.65;2.50;;;21.60;57.90;;;;;;5001028;28;20033;-67
2021/03/02 09:19:23;;;;;;;10.23;2.10;;;21.50;58.30;;;;;;4998225;28;20064;-66
2021/03/02 09:22:03;;;;;;;9.70;1.90;;;21.50;58.80;;;;;;5003733;28;20038;-66
2021/03/02 09:24:35;;;;;;;11.52;3.15;;;21.50;58.70;;;;;;5004173;28;20053;-66
2021/03/02 09:27:07;;;;;;;11.88;3.00;;;21.50;58.30;;;;;;5002589;28;20461;-64
2021/03/02 09:29:39;;;;;;;8.13;1.92;;;21.60;58.40;;;;;;5003010;28;20113;-64
2021/03/02 09:32:07;;;;;;;10.82;2.25;;;21.60;58.50;;;;;;5002348;28;20029;-65
2021/03/02 09:34:42;;;;;;;15.50;3.15;;;21.50;58.80;;;;;;5002524;28;20526;-65
2021/03/02 09:37:20;;;;;;;7.93;1.80;;;21.40;58.30;;;;;;5001872;28;20423;-66
2021/03/02 09:40:09;;;;;;;10.52;2.17;;;21.50;58.80;;;;;;5001979;28;20605;-67
2021/03/02 09:42:39;;;;;;;10.00;2.60;;;21.50;58.20;;;;;;5000236;28;20033;-68
2021/03/02 09:45:17;;;;;;;10.75;2.67;;;21.50;58.40;;;;;;5002563;28;20038;-68
2021/03/02 09:47:46;;;;;;;13.80;2.00;;;21.50;58.80;;;;;;5000342;28;20040;-66
2021/03/02 09:50:18;;;;;;;11.48;3.10;;;21.60;58.30;;;;;;5001338;28;20044;-66
2021/03/02 09:52:55;;;;;;;11.30;2.47;;;21.60;58.70;;;;;;5002275;28;20075;-66
2021/03/02 09:55:29;;;;;;;14.38;3.17;;;21.60;58.30;;;;;;5003535;28;20342;-67
2021/03/02 09:58:12;;;;;;;8.60;1.92;;;21.60;58.80;;;;;;5001140;28;20113;-67
2021/03/02 10:00:46;;;;;;;11.38;2.42;;;21.40;59.20;;;;;;5000327;28;20101;-67
2021/03/02 10:03:22;;;;;;;10.68;3.03;;;21.40;59.20;;;;;;5002597;28;20400;-67
2021/03/02 10:06:06;;;;;;;10.90;2.45;;;21.40;59.60;;;;;;5002837;28;20041;-66
2021/03/02 10:08:38;;;;;;;8.70;2.03;;;21.40;59.50;;;;;;4998986;28;20484;-66
2021/03/02 10:11:15;;;;;;;9.85;2.05;;;21.30;59.40;;;;;;5001974;28;20044;-66
2021/03/02 10:13:53;;;;;;;14.73;2.10;;;21.40;59.50;;;;;;5003062;28;20014;-66
2021/03/02 10:16:41;;;;;;;8.40;2.50;;;21.40;59.30;;;;;;5002766;28;20089;-68
2021/03/02 10:19:21;;;;;;;12.65;2.08;;;21.40;59.30;;;;;;4999012;28;20025;-66
2021/03/02 10:21:56;;;;;;;13.07;2.13;;;21.40;58.80;;;;;;5000943;28;20029;-70
2021/03/02 10:24:35;;;;;;;8.23;3.08;;;21.40;59.00;;;;;;5018147;28;20125;-67
2021/03/02 10:27:23;;;;;;;11.00;2.30;;;21.40;59.40;;;;;;5000908;28;20045;-67
2021/03/02 10:29:50;;;;;;;7.70;1.92;;;21.40;59.30;;;;;;5000891;28;20049;-69
2021/03/02 10:32:18;;;;;;;16.48;3.28;;;21.40;59.60;;;;;;5001521;28;20029;-70
2021/03/02 10:34:45;;;;;;;8.60;1.95;;;21.30;59.70;;;;;;5002165;28;20030;-70
2021/03/02 10:37:14;;;;;;;13.25;2.10;;;21.30;59.40;;;;;;4999749;28;20036;-69
2021/03/02 10:39:42;;;;;;;6.55;1.77;;;21.40;59.50;;;;;;5000214;28;20116;-68
2021/03/02 10:42:09;;;;;;;8.18;2.78;;;21.40;59.40;;;;;;5003180;28;20679;-67
2021/03/02 10:44:38;;;;;;;13.60;1.55;;;21.40;59.70;;;;;;5000147;28;20513;-68
2021/03/02 10:47:06;;;;;;;9.65;1.73;;;21.30;59.40;;;;;;4997089;28;20070;-71
2021/03/02 10:49:34;;;;;;;10.10;1.85;;;21.40;59.20;;;;;;4999771;28;20114;-67
2021/03/02 10:52:01;;;;;;;9.80;1.30;;;21.40;59.30;;;;;;5001758;28;20034;-68
2021/03/02 10:54:29;;;;;;;7.20;1.60;;;21.40;59.30;;;;;;5002037;28;20213;-67
2021/03/02 10:56:57;;;;;;;5.07;1.75;;;21.40;59.10;;;;;;4999969;28;20034;-67
2021/03/02 10:59:25;;;;;;;9.25;1.77;;;21.50;58.70;;;;;;5000290;28;20048;-68
2021/03/02 11:01:52;;;;;;;13.27;2.80;;;21.40;59.20;;;;;;4999915;28;20026;-69
2021/03/02 11:04:20;;;;;;;6.38;1.60;;;21.40;59.40;;;;;;5001262;28;20037;-68
2021/03/02 11:06:47;;;;;;;7.07;1.55;;;21.30;59.10;;;;;;5000213;28;20042;-69
2021/03/02 11:09:15;;;;;;;6.32;1.52;;;21.30;59.20;;;;;;4999730;28;20030;-69
2021/03/02 11:11:42;;;;;;;6.63;1.55;;;21.30;59.60;;;;;;5000789;28;20115;-68
2021/03/02 11:14:10;;;;;;;6.30;1.77;;;21.30;59.70;;;;;;5002171;28;20107;-67
2021/03/02 11:16:37;;;;;;;12.93;3.17;;;21.20;59.80;;;;;;4999871;28;21233;-68
2021/03/02 11:19:05;;;;;;;8.85;1.80;;;21.20;60.00;;;;;;5000466;28;20042;-68
2021/03/02 11:21:32;;;;;;;11.13;1.42;;;21.20;60.00;;;;;;4999763;28;20053;-67
2021/03/02 11:24:00;;;;;;;9.48;2.13;;;21.20;60.00;;;;;;5001422;28;20769;-68
2021/03/02 11:26:27;;;;;;;11.48;2.20;;;21.10;60.10;;;;;;5002519;28;20094;-68
2021/03/02 11:28:55;;;;;;;12.40;2.92;;;21.10;60.50;;;;;;4998622;28;20030;-68
2021/03/02 11:31:26;;;;;;;9.15;2.05;;;21.10;61.10;;;;;;4999713;28;20041;-67
2021/03/02 11:33:53;;;;;;;8.65;2.47;;;21.00;61.30;;;;;;5001030;28;20792;-68
2021/03/02 11:36:21;;;;;;;6.82;1.40;;;21.10;61.40;;;;;;5000953;28;20049;-66
2021/03/02 11:38:48;;;;;;;9.50;2.58;;;21.10;61.20;;;;;;4997762;28;20112;-67
2021/03/02 11:41:15;;;;;;;9.18;2.00;;;21.10;61.30;;;;;;5000686;28;20129;-67
2021/03/02 11:43:44;;;;;;;6.35;2.40;;;21.10;61.00;;;;;;5001705;28;20689;-68
2021/03/02 11:46:11;;;;;;;7.97;1.95;;;21.00;60.90;;;;;;5001466;28;20037;-67
2021/03/02 11:48:39;;;;;;;8.70;2.10;;;21.00;61.20;;;;;;4999797;28;20032;-68
2021/03/02 11:51:06;;;;;;;6.63;1.50;;;20.90;60.90;;;;;;4998089;28;20053;-68
2021/03/02 11:53:34;;;;;;;8.98;2.47;;;20.90;61.10;;;;;;5002033;28;20037;-67
2021/03/02 11:56:01;;;;;;;8.55;2.20;;;20.90;61.20;;;;;;5002115;28;20851;-67
2021/03/02 11:58:29;;;;;;;9.48;1.70;;;20.90;60.90;;;;;;4997621;28;20148;-66
2021/03/02 12:00:57;;;;;;;9.23;1.75;;;20.90;60.90;;;;;;4999100;28;21163;-66
2021/03/02 12:03:24;;;;;;;7.43;1.95;;;20.90;60.70;;;;;;5000785;28;20042;-68
2021/03/02 12:05:52;;;;;;;8.77;1.65;;;20.90;60.90;;;;;;5000652;28;20038;-68
2021/03/02 12:08:20;;;;;;;9.23;1.52;;;20.80;61.00;;;;;;5000557;28;20050;-68
2021/03/02 12:10:48;;;;;;;8.40;1.63;;;20.80;60.90;;;;;;5003284;28;20044;-68
2021/03/02 12:13:15;;;;;;;4.22;1.35;;;20.90;60.80;;;;;;5004170;28;20061;-70
2021/03/02 12:15:42;;;;;;;8.75;1.80;;;20.90;61.10;;;;;;5005140;28;20484;-67
2021/03/02 12:18:10;;;;;;;9.38;2.28;;;20.80;60.70;;;;;;5002277;28;20037;-67
2021/03/02 12:20:38;;;;;;;5.45;1.67;;;20.90;61.50;;;;;;5002040;28;20059;-67
2021/03/02 12:23:06;;;;;;;9.88;1.77;;;20.80;62.20;;;;;;5005623;28;20018;-68
2021/03/02 12:25:33;;;;;;;7.90;1.80;;;20.70;62.30;;;;;;5004643;28;20033;-68
2021/03/02 12:28:01;;;;;;;6.03;1.98;;;20.70;62.80;;;;;;5001567;28;20042;-68
2021/03/02 12:30:28;;;;;;;6.47;1.35;;;20.70;62.30;;;;;;5002885;28;20040;-68
2021/03/02 12:32:56;;;;;;;9.57;2.08;;;20.70;62.20;;;;;;5003133;28;20041;-68
2021/03/02 12:35:24;;;;;;;6.00;2.33;;;20.70;62.90;;;;;;5005134;28;20399;-68
2021/03/02 12:37:51;;;;;;;8.07;2.33;;;20.70;63.30;;;;;;5001927;28;20141;-68
2021/03/02 12:40:19;;;;;;;10.48;1.95;;;20.60;63.30;;;;;;5003647;28;20068;-70
2021/03/02 12:42:47;;;;;;;6.55;1.60;;;20.60;63.80;;;;;;5003198;28;20513;-68
2021/03/02 12:45:16;;;;;;;6.75;2.72;;;20.60;64.00;;;;;;5002008;28;20026;-66
2021/03/02 12:47:44;;;;;;;9.82;2.10;;;20.50;64.20;;;;;;5001954;28;20100;-68
2021/03/02 12:50:12;;;;;;;11.57;1.58;;;20.50;64.30;;;;;;5002971;28;20481;-68
2021/03/02 12:52:41;;;;;;;12.88;1.95;;;20.40;64.20;;;;;;5005170;28;20092;-66
2021/03/02 12:55:09;;;;;;;8.18;1.55;;;20.40;64.30;;;;;;5001746;28;20030;-67
2021/03/02 12:57:38;;;;;;;9.43;1.90;;;20.40;64.10;;;;;;5002405;28;20034;-67
2021/03/02 13:00:07;;;;;;;11.73;3.10;;;20.40;64.10;;;;;;5002517;28;20528;-66